createdAt,value
2018-05-23T00:01:35.095Z,99.90
2018-05-23T00:06:18.447Z,99.90
2018-05-23T00:11:01.784Z,99.90
2018-05-23T00:15:45.232Z,99.90
2018-05-23T00:20:28.548Z,99.90
2018-05-23T00:25:11.929Z,99.90
2018-05-23T00:29:55.248Z,99.90
2018-05-23T00:34:38.555Z,99.90
2018-05-23T00:39:21.876Z,99.90
2018-05-23T00:44:05.964Z,99.90
2018-05-23T00:48:49.305Z,99.90
2018-05-23T00:53:32.642Z,99.90
2018-05-23T00:58:15.963Z,99.90
2018-05-23T01:02:59.341Z,99.90
2018-05-23T01:07:42.672Z,99.90
2018-05-23T01:12:26.939Z,99.90
2018-05-23T01:17:10.242Z,99.90
2018-05-23T01:21:54.355Z,99.90
2018-05-23T01:26:37.663Z,99.90
2018-05-23T01:31:21.004Z,99.90
2018-05-23T01:36:04.306Z,99.90
2018-05-23T01:40:47.639Z,99.90
2018-05-23T01:45:31.031Z,99.90
2018-05-23T01:50:14.331Z,99.90
2018-05-23T01:54:58.419Z,99.90
2018-05-23T01:59:41.725Z,99.90
2018-05-23T02:04:25.046Z,99.90
2018-05-23T02:09:08.371Z,99.90
2018-05-23T02:13:51.803Z,99.90
2018-05-23T02:18:35.152Z,99.90
2018-05-23T02:23:18.457Z,99.90
2018-05-23T02:28:02.557Z,99.90
2018-05-23T02:32:45.828Z,99.90
2018-05-23T02:37:29.947Z,99.90
2018-05-23T02:42:13.253Z,99.90
2018-05-23T02:46:56.563Z,99.90
2018-05-23T02:51:40.626Z,99.90
2018-05-23T02:56:24.748Z,99.90
2018-05-23T03:01:08.024Z,99.90
2018-05-23T03:05:51.485Z,99.90
2018-05-23T03:10:35.561Z,99.90
2018-05-23T03:15:18.943Z,99.90
2018-05-23T03:20:02.248Z,99.90
2018-05-23T03:24:45.612Z,99.90
2018-05-23T03:29:28.903Z,99.90
2018-05-23T03:34:12.227Z,99.90
2018-05-23T03:38:56.340Z,99.90
2018-05-23T03:43:39.671Z,99.90
2018-05-23T03:48:23.012Z,99.90
2018-05-23T03:53:06.299Z,99.90
2018-05-23T03:57:49.623Z,99.90
2018-05-23T04:02:44.632Z,99.90
2018-05-23T04:07:37.709Z,99.90
2018-05-23T04:12:21.062Z,99.90
2018-05-23T04:17:05.156Z,99.90
2018-05-23T04:21:48.523Z,99.90
2018-05-23T04:26:31.900Z,99.90
2018-05-23T04:31:16.083Z,99.90
2018-05-23T04:35:59.435Z,99.90
2018-05-23T04:40:42.883Z,99.90
2018-05-23T04:45:26.260Z,99.90
2018-05-23T04:50:09.619Z,99.90
2018-05-23T04:54:53.016Z,99.90
2018-05-23T04:59:36.372Z,99.90
2018-05-23T05:04:19.782Z,99.90
2018-05-23T05:09:03.104Z,99.90
2018-05-23T05:13:46.599Z,99.90
2018-05-23T05:18:30.864Z,99.90
2018-05-23T05:23:14.406Z,99.90
2018-05-23T05:27:57.754Z,99.90
2018-05-23T05:32:41.135Z,99.90
2018-05-23T05:37:24.532Z,99.90
2018-05-23T05:42:08.011Z,99.90
2018-05-23T05:46:52.158Z,99.90
2018-05-23T05:51:35.563Z,99.90
2018-05-23T05:56:19.616Z,99.90
2018-05-23T06:01:02.953Z,99.90
2018-05-23T06:05:46.684Z,99.90
2018-05-23T06:10:30.009Z,99.90
2018-05-23T06:15:14.117Z,99.90
2018-05-23T06:19:57.427Z,99.90
2018-05-23T06:24:40.843Z,99.90
2018-05-23T06:29:24.170Z,99.90
2018-05-23T06:34:08.294Z,99.90
2018-05-23T06:38:53.583Z,99.90
2018-05-23T06:43:36.998Z,99.90
2018-05-23T06:48:20.348Z,99.90
2018-05-23T06:53:03.657Z,99.90
2018-05-23T06:57:46.990Z,99.90
2018-05-23T07:02:30.266Z,99.90
2018-05-23T07:07:13.582Z,99.90
2018-05-23T07:11:56.960Z,99.90
2018-05-23T07:16:40.270Z,99.90
2018-05-23T07:21:25.520Z,99.90
2018-05-23T07:26:08.996Z,99.90
2018-05-23T07:30:53.075Z,99.90
2018-05-23T07:35:36.380Z,99.90
2018-05-23T07:40:20.498Z,99.90
2018-05-23T07:45:03.803Z,99.90
2018-05-23T07:49:47.152Z,99.90
2018-05-23T07:54:30.519Z,99.80
2018-05-23T07:59:13.791Z,98.30
2018-05-23T08:03:57.881Z,97.60
2018-05-23T08:08:41.188Z,97.60
2018-05-23T08:13:25.282Z,95.00
2018-05-23T08:18:08.597Z,94.90
2018-05-23T08:22:52.723Z,93.30
2018-05-23T08:27:36.031Z,93.30
2018-05-23T08:32:19.505Z,92.00
2018-05-23T08:37:02.819Z,92.20
2018-05-23T08:41:46.136Z,90.60
2018-05-23T08:46:29.477Z,90.70
2018-05-23T08:51:13.515Z,85.60
2018-05-23T08:55:56.825Z,87.00
2018-05-23T09:00:40.152Z,83.20
2018-05-23T09:05:23.547Z,81.20
2018-05-23T09:10:06.892Z,83.20
2018-05-23T09:14:50.966Z,85.00
2018-05-23T09:19:34.309Z,84.50
2018-05-23T09:24:17.617Z,81.10
2018-05-23T09:29:01.698Z,79.40
2018-05-23T09:33:45.007Z,79.60
2018-05-23T09:38:28.316Z,78.30
2018-05-23T09:43:11.673Z,77.30
2018-05-23T09:47:55.041Z,75.90
2018-05-23T09:52:38.439Z,75.90
2018-05-23T09:57:21.780Z,71.60
2018-05-23T10:02:05.218Z,69.80
2018-05-23T10:06:48.515Z,73.30
2018-05-23T10:11:31.882Z,73.70
2018-05-23T10:16:15.214Z,71.10
2018-05-23T10:20:58.541Z,72.90
2018-05-23T10:25:41.944Z,74.10
2018-05-23T10:30:25.346Z,76.20
2018-05-23T10:35:08.659Z,77.70
2018-05-23T10:39:51.988Z,79.90
2018-05-23T10:44:36.076Z,82.10
2018-05-23T10:49:19.391Z,82.10
2018-05-23T10:54:02.687Z,82.80
2018-05-23T10:58:46.034Z,84.70
2018-05-23T11:03:30.158Z,85.30
2018-05-23T11:08:13.478Z,85.40
2018-05-23T11:12:56.823Z,85.80
2018-05-23T11:17:40.896Z,87.20
2018-05-23T11:22:24.208Z,87.20
2018-05-23T11:27:07.712Z,88.90
2018-05-23T11:31:51.039Z,89.70
2018-05-23T11:36:34.343Z,90.60
2018-05-23T11:41:17.730Z,91.40
2018-05-23T11:46:01.032Z,93.40
2018-05-23T11:50:44.360Z,94.50
2018-05-23T11:55:28.512Z,97.10
2018-05-23T12:00:11.899Z,97.00
2018-05-23T12:04:55.216Z,99.50
2018-05-23T12:09:38.624Z,99.90
2018-05-23T12:14:21.962Z,99.90
2018-05-23T12:19:06.047Z,99.90
2018-05-23T12:23:49.375Z,99.90
2018-05-23T12:28:32.725Z,99.90
2018-05-23T12:33:17.107Z,99.90
2018-05-23T12:38:00.425Z,99.90
2018-05-23T12:42:44.576Z,99.90
2018-05-23T12:47:27.918Z,99.90
2018-05-23T12:52:11.977Z,99.90
2018-05-23T12:56:55.295Z,99.90
2018-05-23T13:01:38.594Z,99.50
2018-05-23T13:06:21.937Z,97.60
2018-05-23T13:11:05.264Z,96.40
2018-05-23T13:15:49.412Z,96.50
2018-05-23T13:20:32.784Z,96.50
2018-05-23T13:25:16.090Z,94.70
2018-05-23T13:29:59.447Z,95.80
2018-05-23T13:34:42.874Z,95.60
2018-05-23T13:39:26.223Z,95.30
2018-05-23T13:44:09.564Z,94.40
2018-05-23T13:48:52.894Z,93.10
2018-05-23T13:58:29.437Z,92.60
2018-05-23T14:03:12.842Z,91.70
2018-05-23T14:07:56.167Z,91.00
2018-05-23T14:12:40.530Z,90.90
2018-05-23T14:17:23.919Z,90.70
2018-05-23T14:22:07.254Z,90.40
2018-05-23T14:26:50.595Z,89.70
2018-05-23T14:31:34.890Z,90.30
2018-05-23T14:36:19.027Z,94.10
2018-05-23T14:41:02.465Z,94.10
2018-05-23T14:45:49.959Z,99.20
2018-05-23T14:50:34.103Z,98.20
2018-05-23T14:55:18.601Z,98.90
2018-05-23T15:00:02.688Z,98.60
2018-05-23T15:04:45.999Z,98.50
2018-05-23T15:09:29.392Z,96.70
2018-05-23T15:14:12.762Z,97.80
2018-05-23T15:18:56.413Z,94.80
2018-05-23T15:23:39.783Z,94.20
2018-05-23T15:28:23.188Z,94.10
2018-05-23T15:33:07.299Z,92.50
2018-05-23T15:37:50.746Z,92.50
2018-05-23T15:42:34.104Z,91.30
2018-05-23T15:47:17.677Z,89.90
2018-05-23T15:52:01.841Z,81.20
2018-05-23T15:56:51.679Z,81.20
2018-05-23T16:01:38.602Z,80.10
2018-05-23T16:06:22.435Z,76.50
2018-05-23T16:11:06.725Z,75.20
2018-05-23T16:15:50.270Z,75.20
2018-05-23T16:20:33.662Z,78.20
2018-05-23T16:25:17.064Z,77.00
2018-05-23T16:30:00.532Z,77.00
2018-05-23T16:34:43.916Z,79.00
2018-05-23T16:39:27.301Z,80.80
2018-05-23T16:44:10.704Z,80.10
2018-05-23T16:48:54.206Z,80.30
2018-05-23T16:53:37.529Z,81.20
2018-05-23T16:58:20.967Z,81.30
2018-05-23T17:03:04.385Z,82.20
2018-05-23T17:07:47.771Z,83.40
2018-05-23T17:12:31.211Z,84.20
2018-05-23T17:17:14.446Z,85.70
2018-05-23T17:21:57.788Z,86.50
2018-05-23T17:26:41.094Z,87.30
2018-05-23T17:31:25.244Z,88.40
2018-05-23T17:36:08.580Z,88.50
2018-05-23T17:40:51.901Z,90.20
2018-05-23T17:45:35.214Z,90.10
2018-05-23T17:50:19.305Z,91.50
2018-05-23T17:55:02.681Z,91.50
2018-05-23T17:59:46.040Z,92.00
2018-05-23T18:04:29.428Z,92.50
2018-05-23T18:09:12.746Z,93.30
2018-05-23T18:13:56.878Z,95.20
2018-05-23T18:18:41.096Z,95.10
2018-05-23T18:23:25.230Z,95.40
2018-05-23T18:28:08.532Z,95.40
2018-05-23T18:32:52.873Z,96.30
2018-05-23T18:37:36.244Z,96.30
2018-05-23T18:42:19.556Z,97.00
2018-05-23T18:47:02.888Z,97.50
2018-05-23T18:51:46.284Z,97.90
2018-05-23T18:56:30.435Z,98.70
2018-05-23T19:01:13.805Z,98.70
2018-05-23T19:05:58.098Z,98.90
2018-05-23T19:10:42.633Z,99.60
2018-05-23T19:15:26.003Z,99.90
2018-05-23T19:20:09.483Z,99.90
2018-05-23T19:24:53.765Z,99.90
2018-05-23T19:29:38.080Z,99.90
2018-05-23T19:34:21.762Z,99.90
2018-05-23T19:39:06.077Z,99.90
2018-05-23T19:43:49.507Z,99.90
2018-05-23T19:48:32.870Z,99.90
2018-05-23T19:53:16.327Z,99.90
2018-05-23T19:57:59.738Z,99.90
2018-05-23T20:02:43.157Z,99.90
2018-05-23T20:07:26.524Z,99.90
2018-05-23T20:12:09.909Z,99.90
2018-05-23T20:16:53.529Z,99.90
2018-05-23T20:21:36.994Z,99.90
2018-05-23T20:26:20.587Z,99.90
2018-05-23T20:31:03.912Z,99.90
2018-05-23T20:35:47.451Z,99.90
2018-05-23T20:40:31.158Z,99.90
2018-05-23T20:45:14.630Z,99.90
2018-05-23T20:49:58.057Z,99.70
2018-05-23T20:54:41.404Z,98.70
2018-05-23T20:59:24.920Z,97.30
2018-05-23T21:04:08.391Z,96.90
2018-05-23T21:08:51.759Z,97.30
2018-05-23T21:13:35.116Z,97.30
2018-05-23T21:18:19.190Z,96.60
2018-05-23T21:23:02.488Z,96.60
2018-05-23T21:27:45.843Z,96.80
2018-05-23T21:32:29.952Z,95.50
2018-05-23T21:37:13.276Z,95.50
2018-05-23T21:41:56.639Z,95.50
2018-05-23T21:46:39.945Z,95.90
2018-05-23T21:51:23.296Z,95.20
2018-05-23T21:56:06.544Z,95.60
2018-05-23T22:00:50.669Z,95.60
2018-05-23T22:05:33.991Z,95.60
2018-05-23T22:10:18.077Z,95.50
2018-05-23T22:15:01.374Z,95.50
2018-05-23T22:19:44.674Z,95.60
2018-05-23T22:24:28.065Z,95.80
2018-05-23T22:29:11.308Z,96.10
2018-05-23T22:33:55.637Z,96.20
2018-05-23T22:38:39.748Z,96.30
2018-05-23T22:43:23.183Z,96.30
2018-05-23T22:48:07.647Z,96.30
2018-05-23T22:52:51.008Z,96.20
2018-05-23T22:57:34.376Z,96.80
2018-05-23T23:02:17.687Z,96.70
2018-05-23T23:07:01.011Z,96.60
2018-05-23T23:11:45.092Z,97.10
2018-05-23T23:16:29.219Z,96.80
2018-05-23T23:21:12.592Z,96.80
2018-05-23T23:25:55.938Z,96.90
2018-05-23T23:30:39.237Z,97.40
2018-05-23T23:35:23.317Z,97.50
2018-05-23T23:40:07.424Z,97.60
2018-05-23T23:44:50.956Z,97.50
2018-05-23T23:49:34.915Z,97.50
2018-05-23T23:54:18.219Z,97.50
2018-05-23T23:59:01.502Z,97.50
